Time;durP1;ratioP1;P1;durP2;ratioP2;P2;SDS_P1;SDS_P2;PMS_P1;PMS_P2;Temp;Humidity;BMP_temperature;BMP_pressure;BME280_temperature;BME280_humidity;BME280_pressure;Samples;Min_cycle;Max_cycle;Signal;HPM_P1;HPM_P2
2023/09/13 00:00:39;;;;;;;6.32;4.97;;;;;;;;;;2073969;28;20033;-52
2023/09/13 00:01:40;;;;;;;7.40;5.15;;;;;;;;;;2074109;28;20029;-53
2023/09/13 00:02:41;;;;;;;6.50;4.63;;;;;;;;;;2072806;28;20427;-53
2023/09/13 00:03:42;;;;;;;7.20;4.80;;;;;;;;;;2072665;28;20508;-53
2023/09/13 00:04:43;;;;;;;7.20;4.63;;;;;;;;;;2074119;28;20070;-52
2023/09/13 00:05:46;;;;;;;8.60;4.78;;;;;;;;;;2073797;28;20050;-52
2023/09/13 00:06:47;;;;;;;7.40;4.32;;;;;;;;;;2073380;28;20042;-52
2023/09/13 00:07:47;;;;;;;8.07;4.97;;;;;;;;;;2073231;28;20406;-52
2023/09/13 00:08:48;;;;;;;7.60;4.05;;;;;;;;;;2073292;28;20050;-52
2023/09/13 00:09:49;;;;;;;7.50;4.30;;;;;;;;;;2073424;28;20038;-52
2023/09/13 00:10:50;;;;;;;4.68;4.05;;;;;;;;;;2074098;28;20045;-53
2023/09/13 00:11:50;;;;;;;8.65;4.68;;;;;;;;;;2073732;28;20120;-52
2023/09/13 00:12:51;;;;;;;7.45;4.25;;;;;;;;;;2073714;28;20029;-53
2023/09/13 00:13:52;;;;;;;10.07;4.25;;;;;;;;;;2073932;28;20056;-53
2023/09/13 00:14:52;;;;;;;7.85;4.20;;;;;;;;;;2073805;28;20045;-52
2023/09/13 00:15:53;;;;;;;6.50;3.95;;;;;;;;;;2073471;28;20089;-52
2023/09/13 00:16:54;;;;;;;6.15;3.75;;;;;;;;;;2073035;28;20053;-52
2023/09/13 00:17:55;;;;;;;6.93;4.72;;;;;;;;;;2073981;28;20076;-53
2023/09/13 00:18:55;;;;;;;5.85;4.13;;;;;;;;;;2074115;28;20485;-52
2023/09/13 00:19:56;;;;;;;7.47;4.43;;;;;;;;;;2073605;28;20132;-52
2023/09/13 00:20:57;;;;;;;7.82;4.53;;;;;;;;;;2073826;28;20034;-53
2023/09/13 00:21:57;;;;;;;5.63;4.18;;;;;;;;;;2075291;28;20053;-53
2023/09/13 00:22:58;;;;;;;8.68;4.47;;;;;;;;;;2076563;28;20053;-52
2023/09/13 00:23:59;;;;;;;9.73;4.30;;;;;;;;;;2076339;28;20046;-53
2023/09/13 00:25:00;;;;;;;8.27;4.68;;;;;;;;;;2076568;28;20385;-52
2023/09/13 00:26:00;;;;;;;6.30;4.93;;;;;;;;;;2076175;28;20037;-53
2023/09/13 00:27:01;;;;;;;7.60;4.25;;;;;;;;;;2076401;28;20045;-53
2023/09/13 00:28:02;;;;;;;6.07;4.10;;;;;;;;;;2076454;28;20048;-52
2023/09/13 00:29:02;;;;;;;6.97;4.07;;;;;;;;;;2076866;28;20057;-53
2023/09/13 00:30:06;;;;;;;8.48;4.63;;;;;;;;;;2075991;28;20078;-52
2023/09/13 00:31:10;;;;;;;10.30;4.18;;;;;;;;;;2075913;28;20049;-53
2023/09/13 00:32:11;;;;;;;7.90;4.35;;;;;;;;;;2076429;28;20110;-51
2023/09/13 00:33:11;;;;;;;6.38;3.58;;;;;;;;;;2075243;28;20133;-53
2023/09/13 00:34:12;;;;;;;7.03;4.82;;;;;;;;;;2067680;28;20394;-53
2023/09/13 00:35:13;;;;;;;6.18;3.83;;;;;;;;;;2075797;28;20050;-53
2023/09/13 00:36:14;;;;;;;6.32;4.35;;;;;;;;;;2076416;28;20409;-52
2023/09/13 00:37:14;;;;;;;7.65;3.70;;;;;;;;;;2076501;28;20475;-52
2023/09/13 00:38:15;;;;;;;6.85;4.60;;;;;;;;;;2076188;28;20073;-52
2023/09/13 00:39:16;;;;;;;6.88;4.00;;;;;;;;;;2076405;28;20045;-52
2023/09/13 00:40:17;;;;;;;8.80;5.30;;;;;;;;;;2076215;28;20057;-54
2023/09/13 00:41:18;;;;;;;6.30;4.50;;;;;;;;;;2076214;28;20049;-52
2023/09/13 00:42:18;;;;;;;6.70;4.18;;;;;;;;;;2076473;28;20466;-52
2023/09/13 00:43:19;;;;;;;9.32;4.88;;;;;;;;;;2075452;28;20057;-52
2023/09/13 00:44:20;;;;;;;9.40;4.95;;;;;;;;;;2075440;28;20077;-53
2023/09/13 00:45:21;;;;;;;9.27;4.60;;;;;;;;;;2075632;28;20049;-52
2023/09/13 00:46:21;;;;;;;9.38;4.63;;;;;;;;;;2075888;28;20036;-52
2023/09/13 00:47:22;;;;;;;9.93;4.60;;;;;;;;;;2076504;28;20041;-52
2023/09/13 00:48:23;;;;;;;7.90;4.40;;;;;;;;;;2075558;28;20425;-52
2023/09/13 00:49:23;;;;;;;9.57;5.20;;;;;;;;;;2075230;28;20050;-52
2023/09/13 00:50:24;;;;;;;8.30;4.43;;;;;;;;;;2076361;28;20033;-53
2023/09/13 00:51:25;;;;;;;9.32;5.05;;;;;;;;;;2076229;28;20474;-52
2023/09/13 00:52:26;;;;;;;9.80;4.53;;;;;;;;;;2076263;28;20079;-53
2023/09/13 00:53:26;;;;;;;9.15;4.65;;;;;;;;;;2075832;28;20038;-53
2023/09/13 00:54:27;;;;;;;7.53;4.60;;;;;;;;;;2075459;28;20049;-53
2023/09/13 00:55:28;;;;;;;7.43;5.05;;;;;;;;;;2075576;28;20045;-52
2023/09/13 00:56:28;;;;;;;8.57;4.70;;;;;;;;;;2075896;28;20037;-53
2023/09/13 00:57:30;;;;;;;8.52;4.00;;;;;;;;;;2075681;28;20037;-53
2023/09/13 00:58:30;;;;;;;7.68;4.57;;;;;;;;;;2075834;28;20045;-53
2023/09/13 00:59:31;;;;;;;12.82;4.45;;;;;;;;;;2075191;28;20080;-52
2023/09/13 01:00:34;;;;;;;7.35;4.40;;;;;;;;;;2075639;28;20045;-52
2023/09/13 01:01:35;;;;;;;8.73;4.45;;;;;;;;;;2075727;28;20037;-53
2023/09/13 01:02:38;;;;;;;8.82;4.13;;;;;;;;;;2075377;28;20057;-53
2023/09/13 01:03:40;;;;;;;8.75;4.88;;;;;;;;;;2067619;28;20077;-53
2023/09/13 01:04:41;;;;;;;11.48;4.97;;;;;;;;;;2067719;28;20045;-53
2023/09/13 01:05:41;;;;;;;8.60;4.30;;;;;;;;;;2067652;28;20062;-52
2023/09/13 01:06:42;;;;;;;8.32;4.40;;;;;;;;;;2075308;28;20092;-52
2023/09/13 01:07:43;;;;;;;7.45;4.30;;;;;;;;;;2076296;28;20049;-53
2023/09/13 01:08:45;;;;;;;7.40;3.80;;;;;;;;;;2076354;28;20022;-52
2023/09/13 01:09:46;;;;;;;6.18;3.97;;;;;;;;;;2075330;28;20042;-52
2023/09/13 01:10:47;;;;;;;7.53;4.00;;;;;;;;;;2059467;28;20066;-53
2023/09/13 01:11:48;;;;;;;5.10;4.05;;;;;;;;;;2067577;28;20042;-52
2023/09/13 01:12:50;;;;;;;6.22;4.47;;;;;;;;;;2075173;28;20060;-52
2023/09/13 01:13:50;;;;;;;6.53;4.38;;;;;;;;;;2075618;28;20064;-53
2023/09/13 01:14:51;;;;;;;7.32;4.50;;;;;;;;;;2083465;28;20493;-52
2023/09/13 01:15:52;;;;;;;5.97;4.53;;;;;;;;;;2075858;28;20060;-52
2023/09/13 01:16:52;;;;;;;8.82;4.43;;;;;;;;;;2076029;28;20045;-53
2023/09/13 01:17:54;;;;;;;7.95;4.45;;;;;;;;;;2076387;28;20528;-52
2023/09/13 01:19:24;;;;;;;7.53;4.45;;;;;;;;;;2066762;28;20050;-53
2023/09/13 01:20:43;;;;;;;6.82;4.32;;;;;;;;;;2050876;28;20050;-53
2023/09/13 01:22:02;;;;;;;6.53;4.65;;;;;;;;;;2076133;28;20045;-52
2023/09/13 01:23:12;;;;;;;7.88;3.92;;;;;;;;;;2076498;28;20045;-52
2023/09/13 01:24:39;;;;;;;6.78;4.38;;;;;;;;;;2075959;28;20053;-53
2023/09/13 01:25:44;;;;;;;7.10;4.25;;;;;;;;;;2072563;28;20046;-53
2023/09/13 01:27:04;;;;;;;7.47;4.47;;;;;;;;;;2076279;28;20037;-52
2023/09/13 01:28:07;;;;;;;7.47;4.70;;;;;;;;;;2076165;28;20369;-53
2023/09/13 01:29:09;;;;;;;7.03;4.75;;;;;;;;;;2076218;28;20363;-53
2023/09/13 01:30:10;;;;;;;9.35;4.45;;;;;;;;;;2075062;28;20053;-53
2023/09/13 01:31:11;;;;;;;6.07;4.07;;;;;;;;;;2075571;28;20030;-53
2023/09/13 01:32:12;;;;;;;6.22;4.30;;;;;;;;;;2066964;28;20375;-53
2023/09/13 01:33:13;;;;;;;7.53;4.60;;;;;;;;;;2066103;28;20079;-53
2023/09/13 01:34:13;;;;;;;8.07;4.65;;;;;;;;;;2074417;28;20057;-52
2023/09/13 01:35:14;;;;;;;9.30;4.68;;;;;;;;;;2074814;28;20054;-52
2023/09/13 01:36:15;;;;;;;7.40;4.47;;;;;;;;;;2073939;28;20103;-53
2023/09/13 01:37:16;;;;;;;5.68;3.97;;;;;;;;;;2073748;28;20045;-53
2023/09/13 01:38:17;;;;;;;11.27;4.43;;;;;;;;;;2066166;28;20113;-52
2023/09/13 01:39:18;;;;;;;9.60;4.63;;;;;;;;;;2058080;28;20065;-52
2023/09/13 01:40:19;;;;;;;7.30;4.55;;;;;;;;;;2073917;28;20089;-53
2023/09/13 01:41:31;;;;;;;7.72;4.30;;;;;;;;;;2074239;28;20049;-53
2023/09/13 01:42:32;;;;;;;7.93;4.45;;;;;;;;;;2074209;28;20049;-53
2023/09/13 01:43:33;;;;;;;6.90;4.78;;;;;;;;;;2073631;28;20398;-53
2023/09/13 01:44:34;;;;;;;7.72;4.97;;;;;;;;;;2074427;28;20065;-53
2023/09/13 01:45:34;;;;;;;7.97;5.15;;;;;;;;;;2073845;28;20050;-53
2023/09/13 01:46:37;;;;;;;6.60;4.93;;;;;;;;;;2066456;28;20050;-52
2023/09/13 01:47:38;;;;;;;6.63;4.82;;;;;;;;;;2065681;28;20516;-53
2023/09/13 01:48:38;;;;;;;9.18;4.63;;;;;;;;;;2050001;29;20081;-52
2023/09/13 01:49:39;;;;;;;7.07;5.03;;;;;;;;;;2065807;28;20042;-53
2023/09/13 01:50:40;;;;;;;8.02;4.40;;;;;;;;;;2065903;28;20058;-53
2023/09/13 01:51:41;;;;;;;6.75;4.90;;;;;;;;;;2066094;28;20039;-53
2023/09/13 01:52:41;;;;;;;7.97;5.32;;;;;;;;;;2074517;28;20049;-52
2023/09/13 01:53:43;;;;;;;8.32;5.00;;;;;;;;;;2074440;28;20072;-52
2023/09/13 01:54:43;;;;;;;7.35;4.68;;;;;;;;;;2074920;28;20474;-53
2023/09/13 01:55:44;;;;;;;6.70;4.55;;;;;;;;;;2074795;28;20046;-52
2023/09/13 01:56:45;;;;;;;6.43;4.40;;;;;;;;;;2074174;28;20141;-53
2023/09/13 01:57:46;;;;;;;7.43;5.13;;;;;;;;;;2065515;28;20563;-52
2023/09/13 01:58:48;;;;;;;6.93;4.75;;;;;;;;;;2065985;28;20403;-53
2023/09/13 01:59:49;;;;;;;8.45;4.40;;;;;;;;;;2066349;28;20511;-52
2023/09/13 02:00:50;;;;;;;7.38;4.65;;;;;;;;;;2066058;28;20049;-52
2023/09/13 02:01:50;;;;;;;10.07;4.85;;;;;;;;;;2066056;28;20045;-52
2023/09/13 02:02:51;;;;;;;6.38;4.38;;;;;;;;;;2073785;28;20041;-52
2023/09/13 02:03:52;;;;;;;8.52;4.75;;;;;;;;;;2074817;28;20380;-52
2023/09/13 02:04:53;;;;;;;7.25;4.30;;;;;;;;;;2073717;28;20474;-53
2023/09/13 02:05:53;;;;;;;6.20;4.50;;;;;;;;;;2074222;28;20038;-52
2023/09/13 02:06:54;;;;;;;8.65;4.95;;;;;;;;;;2074720;28;20037;-53
2023/09/13 02:07:55;;;;;;;7.07;5.03;;;;;;;;;;2074086;28;20045;-53
2023/09/13 02:08:55;;;;;;;7.68;4.68;;;;;;;;;;2066151;28;20030;-53
2023/09/13 02:09:56;;;;;;;9.52;5.00;;;;;;;;;;2073527;28;20516;-53
2023/09/13 02:10:57;;;;;;;7.15;4.57;;;;;;;;;;2074786;28;20041;-52
2023/09/13 02:11:58;;;;;;;9.07;4.53;;;;;;;;;;2074662;28;20034;-53
2023/09/13 02:12:58;;;;;;;6.30;4.53;;;;;;;;;;2074777;28;20038;-53
2023/09/13 02:13:59;;;;;;;8.07;4.72;;;;;;;;;;2074117;28;20097;-53
2023/09/13 02:15:00;;;;;;;7.22;4.60;;;;;;;;;;2073880;28;20394;-52
2023/09/13 02:16:01;;;;;;;7.63;4.93;;;;;;;;;;2065849;28;20061;-52
2023/09/13 02:17:02;;;;;;;6.13;4.63;;;;;;;;;;2073763;28;20034;-52
2023/09/13 02:18:03;;;;;;;6.90;4.28;;;;;;;;;;2075069;28;20034;-52
2023/09/13 02:19:04;;;;;;;6.22;4.43;;;;;;;;;;2074502;28;20053;-53
2023/09/13 02:20:05;;;;;;;7.30;4.75;;;;;;;;;;2074554;28;20109;-53
2023/09/13 02:21:06;;;;;;;7.63;4.53;;;;;;;;;;2074175;28;20510;-53
2023/09/13 02:22:07;;;;;;;7.53;4.88;;;;;;;;;;2073435;28;20133;-53
2023/09/13 02:23:08;;;;;;;10.95;5.13;;;;;;;;;;2073714;28;20474;-53
2023/09/13 02:24:09;;;;;;;8.57;4.75;;;;;;;;;;2074432;28;20049;-53
2023/09/13 02:25:10;;;;;;;9.05;5.03;;;;;;;;;;2074212;28;20042;-53
2023/09/13 02:26:23;;;;;;;6.53;4.45;;;;;;;;;;2074464;28;20054;-53
2023/09/13 02:27:25;;;;;;;7.35;5.18;;;;;;;;;;2073901;28;20044;-53
2023/09/13 02:28:26;;;;;;;6.93;5.20;;;;;;;;;;2073570;28;20136;-52
2023/09/13 02:29:26;;;;;;;6.07;4.30;;;;;;;;;;2074581;28;20137;-52
2023/09/13 02:30:27;;;;;;;7.63;4.85;;;;;;;;;;2073474;28;20042;-52
2023/09/13 02:31:28;;;;;;;6.97;4.78;;;;;;;;;;2073255;28;20045;-52
2023/09/13 02:32:29;;;;;;;9.65;4.97;;;;;;;;;;2073771;28;20544;-53
2023/09/13 02:33:29;;;;;;;7.28;4.80;;;;;;;;;;2074276;28;20045;-52
2023/09/13 02:34:31;;;;;;;6.22;4.97;;;;;;;;;;2072989;28;20510;-53
2023/09/13 02:35:32;;;;;;;11.38;4.72;;;;;;;;;;2073514;28;20069;-52
2023/09/13 02:36:32;;;;;;;6.57;5.35;;;;;;;;;;2073793;28;20045;-53
2023/09/13 02:37:33;;;;;;;9.57;5.68;;;;;;;;;;2065919;28;20388;-52
2023/09/13 02:38:34;;;;;;;8.63;5.30;;;;;;;;;;2065363;28;20093;-52
2023/09/13 02:39:38;;;;;;;7.63;4.75;;;;;;;;;;2065765;28;20050;-52
2023/09/13 02:40:39;;;;;;;7.03;5.03;;;;;;;;;;2066051;28;20047;-53
2023/09/13 02:41:39;;;;;;;8.20;4.90;;;;;;;;;;2073782;28;20067;-53
2023/09/13 02:42:40;;;;;;;6.47;4.60;;;;;;;;;;2074066;28;20077;-52
2023/09/13 02:43:41;;;;;;;6.07;4.50;;;;;;;;;;2065632;28;20082;-52
2023/09/13 02:44:41;;;;;;;6.90;5.38;;;;;;;;;;2073546;28;20114;-53
2023/09/13 02:45:42;;;;;;;6.68;4.53;;;;;;;;;;2073338;28;20065;-53
2023/09/13 02:46:43;;;;;;;8.13;4.50;;;;;;;;;;2073126;28;20458;-53
2023/09/13 02:47:44;;;;;;;6.57;4.78;;;;;;;;;;2073737;28;20041;-52
2023/09/13 02:48:45;;;;;;;9.85;4.47;;;;;;;;;;2073781;28;20042;-52
2023/09/13 02:49:46;;;;;;;7.15;5.00;;;;;;;;;;2074009;28;20034;-53
2023/09/13 02:50:49;;;;;;;6.25;5.07;;;;;;;;;;2073997;28;20042;-53
2023/09/13 02:51:51;;;;;;;5.80;4.28;;;;;;;;;;2073702;28;20037;-53
2023/09/13 02:52:51;;;;;;;5.55;4.35;;;;;;;;;;2073853;28;20041;-52
2023/09/13 02:53:52;;;;;;;6.68;4.90;;;;;;;;;;2074375;28;20049;-53
2023/09/13 02:54:53;;;;;;;7.55;4.85;;;;;;;;;;2074275;28;20378;-52
2023/09/13 02:56:02;;;;;;;7.72;5.32;;;;;;;;;;2074337;28;20475;-52
2023/09/13 02:57:02;;;;;;;6.32;4.97;;;;;;;;;;2073395;28;20050;-52
2023/09/13 02:58:06;;;;;;;7.25;4.63;;;;;;;;;;2065721;28;20038;-52
2023/09/13 02:59:07;;;;;;;7.22;4.75;;;;;;;;;;2073735;28;20052;-52
2023/09/13 03:00:07;;;;;;;7.57;5.50;;;;;;;;;;2073553;28;20418;-52
2023/09/13 03:01:12;;;;;;;7.43;5.13;;;;;;;;;;2065715;28;20042;-53
2023/09/13 03:02:16;;;;;;;8.68;5.03;;;;;;;;;;2065472;28;20042;-53
2023/09/13 03:03:16;;;;;;;6.63;5.10;;;;;;;;;;2073667;28;20038;-52
2023/09/13 03:04:17;;;;;;;7.82;5.15;;;;;;;;;;2073488;28;20107;-52
2023/09/13 03:05:19;;;;;;;7.15;5.25;;;;;;;;;;2064930;28;20042;-52
2023/09/13 03:06:19;;;;;;;7.90;4.88;;;;;;;;;;2065458;28;20050;-52
2023/09/13 03:07:20;;;;;;;9.82;5.60;;;;;;;;;;2073383;28;20046;-54
2023/09/13 03:08:21;;;;;;;7.38;5.38;;;;;;;;;;2065192;28;20050;-53
2023/09/13 03:09:22;;;;;;;7.85;5.32;;;;;;;;;;2073632;28;20042;-53
2023/09/13 03:10:23;;;;;;;10.90;5.50;;;;;;;;;;2073290;28;20501;-52
2023/09/13 03:11:23;;;;;;;9.00;5.97;;;;;;;;;;2057316;28;20498;-53
2023/09/13 03:12:24;;;;;;;9.68;5.35;;;;;;;;;;2064656;28;20042;-53
2023/09/13 03:13:25;;;;;;;10.43;5.40;;;;;;;;;;2064222;28;20046;-52
2023/09/13 03:14:26;;;;;;;7.85;5.13;;;;;;;;;;2073305;28;20121;-52
2023/09/13 03:15:31;;;;;;;11.35;5.25;;;;;;;;;;2065133;28;20522;-52
2023/09/13 03:16:31;;;;;;;7.25;5.22;;;;;;;;;;2065952;28;20030;-53
2023/09/13 03:17:32;;;;;;;9.48;5.95;;;;;;;;;;2074074;28;20140;-53
2023/09/13 03:18:33;;;;;;;7.13;5.03;;;;;;;;;;2074103;28;20049;-53
2023/09/13 03:19:33;;;;;;;8.65;5.20;;;;;;;;;;2073130;28;20045;-53
2023/09/13 03:20:37;;;;;;;8.68;4.90;;;;;;;;;;2073220;28;20046;-53
2023/09/13 03:21:38;;;;;;;10.43;5.47;;;;;;;;;;2073216;28;20056;-53
2023/09/13 03:22:39;;;;;;;7.75;4.68;;;;;;;;;;2073693;28;20033;-53
2023/09/13 03:23:42;;;;;;;7.63;5.35;;;;;;;;;;2073469;28;20029;-52
2023/09/13 03:24:42;;;;;;;9.23;5.72;;;;;;;;;;2065249;28;20490;-52
2023/09/13 03:25:43;;;;;;;7.00;5.30;;;;;;;;;;2072880;28;20046;-52
2023/09/13 03:26:44;;;;;;;10.43;5.05;;;;;;;;;;2065050;28;20038;-52
2023/09/13 03:27:47;;;;;;;8.75;5.25;;;;;;;;;;2065037;28;20049;-52
2023/09/13 03:28:48;;;;;;;7.32;4.93;;;;;;;;;;2065736;28;20039;-52
2023/09/13 03:29:49;;;;;;;7.57;5.13;;;;;;;;;;2065045;28;20505;-53
2023/09/13 03:30:50;;;;;;;10.45;5.85;;;;;;;;;;2072632;28;20048;-52
2023/09/13 03:31:51;;;;;;;10.05;5.45;;;;;;;;;;2073510;28;20042;-53
2023/09/13 03:32:51;;;;;;;8.27;5.30;;;;;;;;;;2073397;28;20030;-53
2023/09/13 03:33:53;;;;;;;6.63;5.22;;;;;;;;;;2073618;28;20045;-53
2023/09/13 03:34:53;;;;;;;10.65;5.38;;;;;;;;;;2072734;28;20398;-53
2023/09/13 03:35:54;;;;;;;8.80;5.45;;;;;;;;;;2065422;28;20034;-53
2023/09/13 03:36:55;;;;;;;8.90;5.18;;;;;;;;;;2064888;28;20046;-52
2023/09/13 03:37:56;;;;;;;10.35;5.32;;;;;;;;;;2073067;28;20088;-52
2023/09/13 03:38:57;;;;;;;11.48;5.68;;;;;;;;;;2073202;28;20046;-53
2023/09/13 03:39:59;;;;;;;7.45;5.10;;;;;;;;;;2065308;28;20060;-53
2023/09/13 03:41:00;;;;;;;6.65;4.97;;;;;;;;;;2065238;28;20049;-52
2023/09/13 03:42:01;;;;;;;8.90;5.53;;;;;;;;;;2065265;28;20613;-52
2023/09/13 03:43:02;;;;;;;9.45;5.47;;;;;;;;;;2073028;28;20042;-54
2023/09/13 03:44:03;;;;;;;6.80;4.78;;;;;;;;;;2065105;28;20520;-52
2023/09/13 03:45:04;;;;;;;9.35;5.30;;;;;;;;;;2072489;28;20458;-53
2023/09/13 03:46:05;;;;;;;7.47;5.40;;;;;;;;;;2073605;28;20038;-53
2023/09/13 03:47:08;;;;;;;7.70;5.43;;;;;;;;;;2065235;28;20090;-52
2023/09/13 03:48:09;;;;;;;9.95;5.20;;;;;;;;;;2065307;28;20050;-53
2023/09/13 03:49:10;;;;;;;8.20;5.75;;;;;;;;;;2065039;28;20414;-52
2023/09/13 03:50:11;;;;;;;6.10;4.85;;;;;;;;;;2065076;28;20038;-53
2023/09/13 03:51:11;;;;;;;9.00;5.63;;;;;;;;;;2072976;28;20072;-52
2023/09/13 03:52:12;;;;;;;10.75;5.38;;;;;;;;;;2073568;28;20501;-52
2023/09/13 03:53:13;;;;;;;8.95;5.47;;;;;;;;;;2073278;28;20508;-53
2023/09/13 03:54:13;;;;;;;7.97;5.55;;;;;;;;;;2073003;28;20050;-52
2023/09/13 03:55:14;;;;;;;8.02;5.85;;;;;;;;;;2073215;28;20048;-52
2023/09/13 03:56:15;;;;;;;8.30;5.38;;;;;;;;;;2073479;28;20046;-52
2023/09/13 03:57:16;;;;;;;6.75;5.28;;;;;;;;;;2072817;28;20046;-53
2023/09/13 03:58:17;;;;;;;9.45;5.00;;;;;;;;;;2064817;28;20426;-53
2023/09/13 03:59:17;;;;;;;8.10;5.70;;;;;;;;;;2072588;28;20100;-52
2023/09/13 04:00:18;;;;;;;8.23;5.00;;;;;;;;;;2073946;28;20042;-52
2023/09/13 04:01:19;;;;;;;7.80;5.22;;;;;;;;;;2073087;28;20418;-52
2023/09/13 04:02:20;;;;;;;9.95;5.45;;;;;;;;;;2065144;28;20478;-52
2023/09/13 04:03:21;;;;;;;11.13;5.30;;;;;;;;;;2073235;28;20033;-53
2023/09/13 04:04:21;;;;;;;6.82;5.68;;;;;;;;;;2073174;28;20470;-53
2023/09/13 04:05:22;;;;;;;8.15;5.55;;;;;;;;;;2073179;28;20037;-52
2023/09/13 04:06:23;;;;;;;10.30;5.88;;;;;;;;;;2065075;28;20049;-52
2023/09/13 04:07:25;;;;;;;11.88;5.53;;;;;;;;;;2065123;28;20046;-52
2023/09/13 04:08:26;;;;;;;7.18;5.65;;;;;;;;;;2073288;28;20528;-53
2023/09/13 04:09:27;;;;;;;7.60;5.90;;;;;;;;;;2073811;28;20406;-53
2023/09/13 04:10:27;;;;;;;11.15;5.55;;;;;;;;;;2073171;28;20053;-53
2023/09/13 04:11:28;;;;;;;10.80;5.75;;;;;;;;;;2072620;28;20049;-53
2023/09/13 04:12:29;;;;;;;9.48;6.35;;;;;;;;;;2073884;28;20097;-53
2023/09/13 04:13:30;;;;;;;10.75;6.03;;;;;;;;;;2074113;28;20054;-52
2023/09/13 04:14:31;;;;;;;9.70;5.70;;;;;;;;;;2073403;28;20046;-53
2023/09/13 04:15:32;;;;;;;8.30;5.22;;;;;;;;;;2072841;28;20046;-52
2023/09/13 04:16:33;;;;;;;8.80;5.70;;;;;;;;;;2073221;28;20038;-52
2023/09/13 04:17:34;;;;;;;10.23;6.32;;;;;;;;;;2072476;28;20049;-53
2023/09/13 04:18:36;;;;;;;8.98;6.65;;;;;;;;;;2073129;28;20042;-52
2023/09/13 04:19:37;;;;;;;8.90;6.38;;;;;;;;;;2065410;28;20066;-52
2023/09/13 04:20:38;;;;;;;7.55;5.97;;;;;;;;;;2064775;28;20055;-53
2023/09/13 04:21:39;;;;;;;8.52;5.63;;;;;;;;;;2073098;28;20493;-53
2023/09/13 04:22:39;;;;;;;14.02;6.25;;;;;;;;;;2072707;28;20042;-52
2023/09/13 04:23:40;;;;;;;12.35;6.20;;;;;;;;;;2064316;28;20042;-52
2023/09/13 04:24:41;;;;;;;9.23;6.30;;;;;;;;;;2072773;28;20049;-53
2023/09/13 04:25:43;;;;;;;8.70;5.72;;;;;;;;;;2072842;28;20053;-53
2023/09/13 04:26:45;;;;;;;8.05;6.07;;;;;;;;;;2065151;28;20050;-53
2023/09/13 04:27:46;;;;;;;12.05;6.00;;;;;;;;;;2073231;28;20073;-52
2023/09/13 04:28:47;;;;;;;9.52;6.30;;;;;;;;;;2072760;28;20034;-53
2023/09/13 04:29:48;;;;;;;11.57;6.32;;;;;;;;;;2073260;28;20034;-52
2023/09/13 04:30:49;;;;;;;10.52;6.65;;;;;;;;;;2073055;28;20125;-52
2023/09/13 04:31:49;;;;;;;10.70;5.80;;;;;;;;;;2073120;28;20112;-52
2023/09/13 04:32:50;;;;;;;14.35;6.68;;;;;;;;;;2064452;28;20138;-53
2023/09/13 04:33:52;;;;;;;10.05;6.28;;;;;;;;;;2064817;28;20043;-52
2023/09/13 04:34:55;;;;;;;13.38;6.30;;;;;;;;;;2065402;28;20395;-52
2023/09/13 04:35:56;;;;;;;10.70;6.15;;;;;;;;;;2064881;28;20050;-52
2023/09/13 04:36:57;;;;;;;15.63;6.80;;;;;;;;;;2064539;28;20049;-52
2023/09/13 04:37:57;;;;;;;10.20;6.50;;;;;;;;;;2064832;28;20046;-53
2023/09/13 04:38:58;;;;;;;9.80;6.38;;;;;;;;;;2065037;28;20133;-53
2023/09/13 04:40:01;;;;;;;9.20;6.22;;;;;;;;;;2064629;28;20047;-52
2023/09/13 04:41:03;;;;;;;8.75;5.95;;;;;;;;;;2064672;28;20462;-52
2023/09/13 04:42:04;;;;;;;11.90;6.78;;;;;;;;;;2064726;28;20042;-52
2023/09/13 04:43:05;;;;;;;8.88;6.30;;;;;;;;;;2072854;28;20048;-52
2023/09/13 04:44:07;;;;;;;7.90;6.05;;;;;;;;;;2064297;28;20064;-52
2023/09/13 04:45:08;;;;;;;8.27;6.43;;;;;;;;;;2064898;28;20200;-52
2023/09/13 04:46:09;;;;;;;8.75;6.80;;;;;;;;;;2064863;28;20038;-52
2023/09/13 04:47:10;;;;;;;11.63;6.15;;;;;;;;;;2072549;28;20049;-52
2023/09/13 04:48:11;;;;;;;9.73;6.35;;;;;;;;;;2064412;28;20050;-52
2023/09/13 04:49:12;;;;;;;9.27;6.80;;;;;;;;;;2064483;28;20043;-53
2023/09/13 04:50:12;;;;;;;10.98;6.55;;;;;;;;;;2073019;28;20409;-52
2023/09/13 04:51:13;;;;;;;11.75;6.85;;;;;;;;;;2072849;28;20500;-52
2023/09/13 04:52:14;;;;;;;10.20;6.75;;;;;;;;;;2064261;28;20498;-53
2023/09/13 04:53:16;;;;;;;9.02;6.30;;;;;;;;;;2064230;28;20105;-53
2023/09/13 04:54:18;;;;;;;9.35;6.78;;;;;;;;;;2065023;28;20026;-53
2023/09/13 04:55:19;;;;;;;10.75;6.70;;;;;;;;;;2065069;28;20097;-53
2023/09/13 04:56:20;;;;;;;10.10;6.65;;;;;;;;;;2065070;28;20042;-52
2023/09/13 04:57:21;;;;;;;15.07;7.32;;;;;;;;;;2064890;28;20046;-53
2023/09/13 04:58:22;;;;;;;9.20;6.43;;;;;;;;;;2056771;28;20474;-53
2023/09/13 04:59:23;;;;;;;9.10;6.53;;;;;;;;;;2072788;28;20104;-53
2023/09/13 05:00:26;;;;;;;10.45;7.20;;;;;;;;;;2072824;28;20409;-52
2023/09/13 05:01:27;;;;;;;10.80;6.93;;;;;;;;;;2073031;28;20042;-52
2023/09/13 05:02:28;;;;;;;10.07;7.00;;;;;;;;;;2064989;28;20035;-52
2023/09/13 05:03:28;;;;;;;9.90;6.90;;;;;;;;;;2064766;28;20112;-52
2023/09/13 05:04:29;;;;;;;14.93;7.68;;;;;;;;;;2072510;28;20046;-52
2023/09/13 05:05:30;;;;;;;8.52;6.68;;;;;;;;;;2073540;28;20052;-53
2023/09/13 05:06:30;;;;;;;8.70;7.00;;;;;;;;;;2073511;28;20405;-54
2023/09/13 05:07:31;;;;;;;10.30;7.25;;;;;;;;;;2073849;28;20037;-53
2023/09/13 05:08:32;;;;;;;9.63;7.47;;;;;;;;;;2074946;28;20049;-52
2023/09/13 05:09:34;;;;;;;11.07;7.72;;;;;;;;;;2075266;28;20046;-52
2023/09/13 05:10:35;;;;;;;9.05;7.07;;;;;;;;;;2075146;28;20038;-52
2023/09/13 05:11:36;;;;;;;8.45;7.10;;;;;;;;;;2075239;28;20033;-53
2023/09/13 05:12:36;;;;;;;10.52;7.43;;;;;;;;;;2075275;28;20053;-52
2023/09/13 05:13:38;;;;;;;13.52;7.93;;;;;;;;;;2075083;28;20397;-53
2023/09/13 05:14:42;;;;;;;9.82;7.05;;;;;;;;;;2074885;28;20085;-53
2023/09/13 05:15:45;;;;;;;13.65;7.85;;;;;;;;;;2074991;28;20034;-54
2023/09/13 05:16:46;;;;;;;14.07;7.95;;;;;;;;;;2074401;28;20046;-53
2023/09/13 05:17:47;;;;;;;12.07;7.53;;;;;;;;;;2074824;28;20061;-53
2023/09/13 05:18:48;;;;;;;9.60;7.15;;;;;;;;;;2074741;28;20042;-53
2023/09/13 05:19:48;;;;;;;11.30;7.85;;;;;;;;;;2074373;28;20504;-53
2023/09/13 05:20:49;;;;;;;12.48;7.72;;;;;;;;;;2075029;28;20046;-53
2023/09/13 05:21:51;;;;;;;12.77;7.95;;;;;;;;;;2074952;28;20056;-52
2023/09/13 05:22:52;;;;;;;9.23;7.32;;;;;;;;;;2075061;28;20033;-53
2023/09/13 05:23:53;;;;;;;9.73;7.40;;;;;;;;;;2075110;28;20053;-53
2023/09/13 05:24:53;;;;;;;11.70;7.95;;;;;;;;;;2075315;28;20390;-54
2023/09/13 05:25:55;;;;;;;11.23;8.18;;;;;;;;;;2075134;28;20030;-53
2023/09/13 05:26:56;;;;;;;10.43;7.88;;;;;;;;;;2074676;28;20502;-53
2023/09/13 05:27:57;;;;;;;9.77;8.13;;;;;;;;;;2075100;28;20045;-53
2023/09/13 05:28:57;;;;;;;13.60;8.75;;;;;;;;;;2074634;28;20037;-53
2023/09/13 05:29:58;;;;;;;10.02;7.82;;;;;;;;;;2074935;28;20029;-53
2023/09/13 05:31:02;;;;;;;9.38;8.40;;;;;;;;;;2074909;28;20029;-53
2023/09/13 05:32:03;;;;;;;11.25;8.95;;;;;;;;;;2074555;28;20374;-53
2023/09/13 05:33:04;;;;;;;13.10;9.50;;;;;;;;;;2074937;28;20046;-53
2023/09/13 05:34:05;;;;;;;14.70;8.95;;;;;;;;;;2074994;28;20481;-53
2023/09/13 05:35:06;;;;;;;10.48;8.13;;;;;;;;;;2074314;28;20037;-53
2023/09/13 05:36:07;;;;;;;14.10;9.27;;;;;;;;;;2075010;28;20389;-51
2023/09/13 05:37:08;;;;;;;17.35;9.63;;;;;;;;;;2074660;28;20121;-53
2023/09/13 05:38:08;;;;;;;14.80;8.68;;;;;;;;;;2074840;28;20062;-53
2023/09/13 05:39:09;;;;;;;11.27;8.55;;;;;;;;;;2074627;28;20049;-53
2023/09/13 05:40:10;;;;;;;13.63;9.00;;;;;;;;;;2074832;28;20400;-53
2023/09/13 05:41:11;;;;;;;13.48;9.10;;;;;;;;;;2075153;28;20489;-53
2023/09/13 05:42:12;;;;;;;11.35;8.75;;;;;;;;;;2074520;28;20383;-51
2023/09/13 05:43:13;;;;;;;12.23;8.35;;;;;;;;;;2075373;28;20038;-54
2023/09/13 05:44:17;;;;;;;12.23;8.65;;;;;;;;;;2074885;28;20068;-53
2023/09/13 05:45:18;;;;;;;11.43;8.50;;;;;;;;;;2074183;28;20536;-53
2023/09/13 05:46:19;;;;;;;13.02;9.85;;;;;;;;;;2074792;28;20049;-53
2023/09/13 05:47:20;;;;;;;14.75;9.68;;;;;;;;;;2073793;28;20141;-53
2023/09/13 05:48:21;;;;;;;13.13;8.68;;;;;;;;;;2074953;28;20042;-54
2023/09/13 05:49:21;;;;;;;13.32;8.75;;;;;;;;;;2074402;28;20046;-53
2023/09/13 05:50:22;;;;;;;14.85;9.75;;;;;;;;;;2074499;28;20050;-53
2023/09/13 05:51:23;;;;;;;15.23;10.00;;;;;;;;;;2074751;28;20125;-53
2023/09/13 05:52:24;;;;;;;11.80;8.77;;;;;;;;;;2074100;28;20053;-52
2023/09/13 05:53:24;;;;;;;15.15;9.68;;;;;;;;;;2074293;28;20409;-53
2023/09/13 05:54:25;;;;;;;13.50;9.52;;;;;;;;;;2074761;28;20128;-53
2023/09/13 05:55:26;;;;;;;12.63;8.55;;;;;;;;;;2074797;28;20512;-53
2023/09/13 05:56:26;;;;;;;11.07;9.40;;;;;;;;;;2074479;28;20064;-53
2023/09/13 05:57:28;;;;;;;13.15;8.70;;;;;;;;;;2074846;28;20033;-53
2023/09/13 05:58:29;;;;;;;14.23;9.68;;;;;;;;;;2074723;28;20046;-53
2023/09/13 05:59:32;;;;;;;16.65;9.93;;;;;;;;;;2074032;28;20085;-53
2023/09/13 06:00:33;;;;;;;11.77;9.02;;;;;;;;;;2073764;28;20045;-52
2023/09/13 06:01:33;;;;;;;14.25;9.70;;;;;;;;;;2074403;28;20042;-53
2023/09/13 06:02:37;;;;;;;14.82;9.55;;;;;;;;;;2074747;28;20454;-53
2023/09/13 06:03:38;;;;;;;15.20;10.48;;;;;;;;;;2074677;28;20041;-53
2023/09/13 06:04:38;;;;;;;13.70;10.15;;;;;;;;;;2074686;28;20037;-52
2023/09/13 06:05:39;;;;;;;12.32;9.70;;;;;;;;;;2074921;28;20042;-52
2023/09/13 06:06:40;;;;;;;13.30;10.70;;;;;;;;;;2074651;28;20045;-51